Time;durP1;ratioP1;P1;durP2;ratioP2;P2;SDS_P1;SDS_P2;PMS_P1;PMS_P2;Temp;Humidity;BMP_temperature;BMP_pressure;BME280_temperature;BME280_humidity;BME280_pressure;Samples;Min_cycle;Max_cycle;Signal;HPM_P1;HPM_P2
2023/04/25 05:01:01;;;;;;;;;19.00;13.67;;;;;;;;5713295;22;46711;-52
2023/04/25 05:03:27;;;;;;;;;14.67;13.00;;;;;;;;5020188;28;45695;-53
2023/04/25 05:05:52;;;;;;;;;16.00;14.67;;;;;;;;5020002;28;45418;-53
2023/04/25 05:08:17;;;;;;;;;17.33;13.33;;;;;;;;5019599;28;46216;-54
2023/04/25 05:10:42;;;;;;;;;14.67;12.67;;;;;;;;5019141;28;45570;-54
2023/04/25 05:13:07;;;;;;;;;13.00;13.00;;;;;;;;5019229;28;45434;-51
2023/04/25 05:15:32;;;;;;;;;15.67;12.33;;;;;;;;5019966;28;45403;-52
2023/04/25 05:17:58;;;;;;;;;20.00;15.67;;;;;;;;5020001;28;46127;-53
2023/04/25 05:20:23;;;;;;;;;13.67;13.67;;;;;;;;5019457;28;45237;-52
2023/04/25 05:22:48;;;;;;;;;13.33;12.67;;;;;;;;5018423;28;45446;-52
2023/04/25 05:25:13;;;;;;;;;20.00;16.67;;;;;;;;5018718;28;45349;-52
2023/04/25 05:27:38;;;;;;;;;19.00;15.33;;;;;;;;5019301;28;46183;-52
2023/04/25 05:30:05;;;;;;;;;14.33;12.00;;;;;;;;5025538;28;45225;-51
2023/04/25 05:32:30;;;;;;;;;19.33;16.67;;;;;;;;5019662;28;45211;-53
2023/04/25 05:34:55;;;;;;;;;13.00;13.00;;;;;;;;5019733;28;45620;-54
2023/04/25 05:37:20;;;;;;;;;17.00;12.00;;;;;;;;5018845;28;46095;-54
2023/04/25 05:39:46;;;;;;;;;14.00;14.00;;;;;;;;5019469;28;45502;-49
2023/04/25 05:42:11;;;;;;;;;16.00;13.33;;;;;;;;5018678;28;45534;-54
2023/04/25 05:44:36;;;;;;;;;12.00;12.00;;;;;;;;5019212;28;45303;-53
2023/04/25 05:47:01;;;;;;;;;16.33;14.00;;;;;;;;5018958;28;46252;-54
2023/04/25 05:49:26;;;;;;;;;22.33;18.00;;;;;;;;5019076;28;45355;-53
2023/04/25 05:51:52;;;;;;;;;17.00;15.00;;;;;;;;5019363;28;45608;-52
2023/04/25 05:54:17;;;;;;;;;17.00;14.67;;;;;;;;5018414;28;45376;-52
2023/04/25 05:56:42;;;;;;;;;15.00;14.67;;;;;;;;5018438;28;46202;-54
2023/04/25 05:59:07;;;;;;;;;16.00;15.33;;;;;;;;5018093;28;45324;-54
2023/04/25 06:01:32;;;;;;;;;11.67;10.67;;;;;;;;5018957;28;45546;-54
2023/04/25 06:03:58;;;;;;;;;13.67;13.67;;;;;;;;5018848;28;45479;-50
2023/04/25 06:06:23;;;;;;;;;12.33;12.33;;;;;;;;5018374;28;46267;-52
2023/04/25 06:08:48;;;;;;;;;12.00;10.00;;;;;;;;5017120;28;45449;-52
2023/04/25 06:11:13;;;;;;;;;13.33;13.33;;;;;;;;5018411;28;45435;-53
2023/04/25 06:13:38;;;;;;;;;14.33;14.33;;;;;;;;5018395;28;45234;-52
2023/04/25 06:16:04;;;;;;;;;12.67;12.00;;;;;;;;5016991;28;46295;-53
2023/04/25 06:18:30;;;;;;;;;12.00;11.00;;;;;;;;5013643;28;47272;-54
2023/04/25 06:20:55;;;;;;;;;10.33;10.33;;;;;;;;5013516;28;45493;-52
2023/04/25 06:23:20;;;;;;;;;14.00;10.33;;;;;;;;5013487;28;45431;-48
2023/04/25 06:25:46;;;;;;;;;11.67;10.00;;;;;;;;5012007;28;45539;-51
2023/04/25 06:28:11;;;;;;;;;10.67;9.00;;;;;;;;5011624;28;45654;-49
2023/04/25 06:30:36;;;;;;;;;10.00;9.00;;;;;;;;5017882;28;45647;-52
2023/04/25 06:33:01;;;;;;;;;8.00;8.00;;;;;;;;5017578;28;45735;-51
2023/04/25 06:35:26;;;;;;;;;12.33;10.00;;;;;;;;5016579;28;46112;-50
2023/04/25 06:37:52;;;;;;;;;13.33;10.67;;;;;;;;5019075;28;45287;-49
2023/04/25 06:40:17;;;;;;;;;9.00;9.00;;;;;;;;5017145;28;45549;-49
2023/04/25 06:42:42;;;;;;;;;9.00;9.00;;;;;;;;5020494;28;45439;-52
2023/04/25 06:45:07;;;;;;;;;10.00;9.67;;;;;;;;5021364;28;46304;-49
2023/04/25 06:47:33;;;;;;;;;13.33;11.33;;;;;;;;5021973;28;45292;-48
2023/04/25 06:49:58;;;;;;;;;11.67;10.00;;;;;;;;5021312;28;45335;-47
2023/04/25 06:52:23;;;;;;;;;14.00;14.00;;;;;;;;5021651;28;45640;-49
2023/04/25 06:54:48;;;;;;;;;9.67;9.67;;;;;;;;5024064;28;46262;-49
2023/04/25 06:57:13;;;;;;;;;14.00;12.00;;;;;;;;5021249;28;45334;-52
2023/04/25 06:59:38;;;;;;;;;17.33;13.67;;;;;;;;5021893;28;45387;-51
2023/04/25 07:02:04;;;;;;;;;22.00;18.67;;;;;;;;5019359;28;45383;-51
2023/04/25 07:04:30;;;;;;;;;21.00;21.00;;;;;;;;5021383;28;45939;-52
2023/04/25 07:06:55;;;;;;;;;21.67;19.00;;;;;;;;5021618;28;45291;-49
2023/04/25 07:09:20;;;;;;;;;25.33;21.33;;;;;;;;5021317;28;45352;-51
2023/04/25 07:11:45;;;;;;;;;24.33;21.33;;;;;;;;5021399;28;45418;-50
2023/04/25 07:14:11;;;;;;;;;26.00;21.00;;;;;;;;5021236;28;45896;-52
2023/04/25 07:16:36;;;;;;;;;24.33;20.67;;;;;;;;5021709;28;45405;-50
2023/04/25 07:19:01;;;;;;;;;17.67;17.00;;;;;;;;5021181;28;45515;-48
2023/04/25 07:21:26;;;;;;;;;18.33;15.67;;;;;;;;5021771;28;45282;-50
2023/04/25 07:23:51;;;;;;;;;23.67;23.00;;;;;;;;5021128;28;45984;-51
2023/04/25 07:26:17;;;;;;;;;20.67;17.67;;;;;;;;5020975;28;45371;-52
2023/04/25 07:28:43;;;;;;;;;17.33;16.00;;;;;;;;5022132;28;45689;-52
2023/04/25 07:31:08;;;;;;;;;19.00;18.00;;;;;;;;5023936;28;45457;-50
2023/04/25 07:33:33;;;;;;;;;18.67;18.67;;;;;;;;5021137;28;45342;-52
2023/04/25 07:35:58;;;;;;;;;21.67;20.67;;;;;;;;5020067;28;46250;-51
2023/04/25 07:38:24;;;;;;;;;21.67;20.00;;;;;;;;5021158;28;45342;-49
2023/04/25 07:40:49;;;;;;;;;23.00;23.00;;;;;;;;5021398;28;45433;-50
2023/04/25 07:43:16;;;;;;;;;24.00;21.00;;;;;;;;5020117;28;46180;-52
2023/04/25 07:45:42;;;;;;;;;16.00;14.00;;;;;;;;5020975;28;45300;-49
2023/04/25 07:48:07;;;;;;;;;19.00;15.67;;;;;;;;5019387;28;45446;-50
2023/04/25 07:50:32;;;;;;;;;17.67;15.67;;;;;;;;5021024;28;45344;-48
2023/04/25 07:52:57;;;;;;;;;18.33;17.00;;;;;;;;5020169;28;46289;-48
2023/04/25 07:55:23;;;;;;;;;12.67;12.33;;;;;;;;5022617;28;45434;-49
2023/04/25 07:57:48;;;;;;;;;21.00;19.33;;;;;;;;5020611;28;45501;-48
2023/04/25 08:00:14;;;;;;;;;20.33;14.67;;;;;;;;5020089;28;45339;-49
2023/04/25 08:02:40;;;;;;;;;18.67;16.67;;;;;;;;5020617;28;46131;-52
2023/04/25 08:05:07;;;;;;;;;19.33;15.33;;;;;;;;5020008;28;45238;-50
2023/04/25 08:07:33;;;;;;;;;17.00;13.67;;;;;;;;5020953;28;45433;-49
2023/04/25 08:09:58;;;;;;;;;18.67;16.33;;;;;;;;5020847;28;45578;-49
2023/04/25 08:12:23;;;;;;;;;20.67;14.67;;;;;;;;5019902;28;45445;-49
2023/04/25 08:14:48;;;;;;;;;21.67;14.67;;;;;;;;5020762;28;45340;-48
2023/04/25 08:17:13;;;;;;;;;16.00;14.67;;;;;;;;5020333;28;45580;-50
2023/04/25 08:19:39;;;;;;;;;16.67;13.00;;;;;;;;5020612;28;45448;-49
2023/04/25 08:22:04;;;;;;;;;14.67;13.67;;;;;;;;5018257;28;46105;-50
2023/04/25 08:24:29;;;;;;;;;13.00;11.33;;;;;;;;5020424;28;45403;-51
2023/04/25 08:26:54;;;;;;;;;11.00;10.00;;;;;;;;5020211;28;45494;-50
2023/04/25 08:29:20;;;;;;;;;12.33;11.33;;;;;;;;5023023;28;45607;-50
2023/04/25 08:31:45;;;;;;;;;14.00;11.00;;;;;;;;5020327;28;46104;-48
2023/04/25 08:34:10;;;;;;;;;12.00;11.00;;;;;;;;5020017;28;45286;-50
2023/04/25 08:36:36;;;;;;;;;12.33;10.67;;;;;;;;5020417;28;45766;-50
2023/04/25 08:39:01;;;;;;;;;13.33;12.00;;;;;;;;5020198;28;45325;-49
2023/04/25 08:41:27;;;;;;;;;12.00;10.00;;;;;;;;5018453;28;48463;-48
2023/04/25 08:43:53;;;;;;;;;14.33;11.00;;;;;;;;5020031;28;45316;-48
2023/04/25 08:46:19;;;;;;;;;23.33;14.33;;;;;;;;5019925;28;45300;-51
2023/04/25 08:48:45;;;;;;;;;10.67;10.00;;;;;;;;5020117;28;45677;-49
2023/04/25 08:51:15;;;;;;;;;12.00;9.00;;;;;;;;5018330;28;46173;-50
2023/04/25 08:53:42;;;;;;;;;14.33;9.00;;;;;;;;5019870;28;45276;-51
2023/04/25 08:56:09;;;;;;;;;7.67;7.33;;;;;;;;5022337;28;45419;-48
2023/04/25 08:58:34;;;;;;;;;18.33;14.67;;;;;;;;5019585;28;45224;-50
2023/04/25 09:00:59;;;;;;;;;11.67;11.67;;;;;;;;5019157;28;46075;-49
2023/04/25 09:03:25;;;;;;;;;11.33;11.00;;;;;;;;5019499;28;45513;-49
2023/04/25 09:05:51;;;;;;;;;16.67;11.67;;;;;;;;5020083;28;45209;-52
2023/04/25 09:08:16;;;;;;;;;12.00;11.33;;;;;;;;5019636;28;45498;-48
2023/04/25 09:10:41;;;;;;;;;13.33;10.33;;;;;;;;5019420;28;46052;-50
2023/04/25 09:13:12;;;;;;;;;10.67;8.67;;;;;;;;5019194;28;45333;-52
2023/04/25 09:15:51;;;;;;;;;12.00;10.00;;;;;;;;5019818;28;45359;-52
2023/04/25 09:18:22;;;;;;;;;12.00;9.33;;;;;;;;5019282;28;45332;-49
2023/04/25 09:20:48;;;;;;;;;17.00;12.33;;;;;;;;5019434;28;46231;-52
2023/04/25 09:23:14;;;;;;;;;14.00;11.67;;;;;;;;5019214;28;45558;-51
2023/04/25 09:25:39;;;;;;;;;11.00;9.00;;;;;;;;5019502;28;45382;-51
2023/04/25 09:28:05;;;;;;;;;10.00;7.00;;;;;;;;5018878;28;45311;-52
2023/04/25 09:30:32;;;;;;;;;12.33;12.00;;;;;;;;5022928;28;47171;-50
2023/04/25 09:33:03;;;;;;;;;11.67;11.00;;;;;;;;5019382;28;45410;-49
2023/04/25 09:35:28;;;;;;;;;10.00;8.33;;;;;;;;5019668;28;45216;-51
2023/04/25 09:37:53;;;;;;;;;12.33;11.00;;;;;;;;5019413;28;45490;-50
2023/04/25 09:40:19;;;;;;;;;14.00;9.50;;;;;;;;5018649;28;45327;-49
2023/04/25 09:42:44;;;;;;;;;6.00;3.00;;;;;;;;5019142;28;45260;-51
2023/04/25 09:45:12;;;;;;;;;10.00;8.00;;;;;;;;5017136;28;45339;-49
2023/04/25 09:47:38;;;;;;;;;9.33;6.00;;;;;;;;5011769;28;45311;-49
2023/04/25 09:50:13;;;;;;;;;10.00;10.00;;;;;;;;5018208;28;46268;-52
2023/04/25 09:52:38;;;;;;;;;11.33;9.33;;;;;;;;5022703;28;45436;-51
2023/04/25 09:55:03;;;;;;;;;11.33;9.33;;;;;;;;5020679;28;45326;-50
2023/04/25 09:57:28;;;;;;;;;12.67;11.00;;;;;;;;5018901;28;45327;-51
2023/04/25 09:59:54;;;;;;;;;13.33;12.00;;;;;;;;5018874;28;46254;-53
2023/04/25 10:02:21;;;;;;;;;11.00;10.33;;;;;;;;5018270;28;45399;-51
2023/04/25 10:04:52;;;;;;;;;11.67;9.67;;;;;;;;5019091;28;45386;-51
2023/04/25 10:07:17;;;;;;;;;12.00;8.67;;;;;;;;5018751;28;45461;-52
2023/04/25 10:09:45;;;;;;;;;13.67;10.00;;;;;;;;5018498;28;46947;-50
2023/04/25 10:12:10;;;;;;;;;6.33;6.00;;;;;;;;5018339;28;45371;-52
2023/04/25 10:14:36;;;;;;;;;10.33;10.00;;;;;;;;5018852;28;45277;-52
2023/04/25 10:17:01;;;;;;;;;6.67;5.00;;;;;;;;5018310;28;45727;-51
2023/04/25 10:19:27;;;;;;;;;10.33;10.00;;;;;;;;5018627;28;47019;-51
2023/04/25 10:21:56;;;;;;;;;10.00;9.00;;;;;;;;5018967;28;45250;-52
2023/04/25 10:24:22;;;;;;;;;6.00;5.00;;;;;;;;5018763;28;45404;-50
2023/04/25 10:26:48;;;;;;;;;11.33;7.33;;;;;;;;5018175;28;45334;-51
2023/04/25 10:29:21;;;;;;;;;5.00;5.00;;;;;;;;5022256;28;46211;-47
2023/04/25 10:31:47;;;;;;;;;8.00;6.67;;;;;;;;5018733;28;45451;-49
2023/04/25 10:34:12;;;;;;;;;8.33;8.33;;;;;;;;5018487;28;45481;-50
2023/04/25 10:36:37;;;;;;;;;8.00;7.00;;;;;;;;5018803;28;45479;-49
2023/04/25 10:39:06;;;;;;;;;8.00;8.00;;;;;;;;5018116;28;45265;-52
2023/04/25 10:41:31;;;;;;;;;10.00;9.00;;;;;;;;5018244;28;45442;-52
2023/04/25 10:44:01;;;;;;;;;6.33;6.33;;;;;;;;5001029;28;45532;-48
2023/04/25 10:46:27;;;;;;;;;7.67;7.00;;;;;;;;5015019;28;45264;-51
2023/04/25 10:48:53;;;;;;;;;7.33;7.33;;;;;;;;5018471;28;45539;-48
2023/04/25 10:51:18;;;;;;;;;10.00;8.00;;;;;;;;5017662;28;45497;-51
2023/04/25 10:53:45;;;;;;;;;9.67;7.67;;;;;;;;5018545;28;45425;-50
2023/04/25 10:56:11;;;;;;;;;8.33;7.33;;;;;;;;5019391;28;45372;-48
2023/04/25 10:58:41;;;;;;;;;7.67;7.00;;;;;;;;5018280;28;45579;-50
2023/04/25 11:01:06;;;;;;;;;9.67;6.67;;;;;;;;5017380;28;45501;-50
2023/04/25 11:03:31;;;;;;;;;6.33;3.67;;;;;;;;5018355;28;45603;-52
2023/04/25 11:05:57;;;;;;;;;8.67;7.67;;;;;;;;5018416;28;45339;-48
2023/04/25 11:08:33;;;;;;;;;8.00;6.33;;;;;;;;5017538;28;45307;-51
2023/04/25 11:10:58;;;;;;;;;7.00;7.00;;;;;;;;5017959;28;45338;-49
2023/04/25 11:13:28;;;;;;;;;8.33;8.33;;;;;;;;5016140;28;45337;-49
2023/04/25 11:15:53;;;;;;;;;7.67;7.67;;;;;;;;5018176;28;45355;-49
2023/04/25 11:18:19;;;;;;;;;10.67;7.67;;;;;;;;5017550;28;46279;-49
2023/04/25 11:20:44;;;;;;;;;8.00;6.67;;;;;;;;5018141;28;45353;-48
2023/04/25 11:23:10;;;;;;;;;8.33;6.00;;;;;;;;5017608;28;45209;-47
2023/04/25 11:25:36;;;;;;;;;10.00;6.33;;;;;;;;5017912;28;45425;-50
2023/04/25 11:28:01;;;;;;;;;6.67;6.67;;;;;;;;5018051;28;46214;-53
2023/04/25 11:30:30;;;;;;;;;5.00;5.00;;;;;;;;5025178;28;45252;-48
2023/04/25 11:32:55;;;;;;;;;7.00;4.00;;;;;;;;5021539;28;45402;-49
2023/04/25 11:35:22;;;;;;;;;8.00;7.00;;;;;;;;5021006;28;45756;-48
2023/04/25 11:37:48;;;;;;;;;7.00;5.67;;;;;;;;5021054;28;47073;-49
2023/04/25 11:40:13;;;;;;;;;7.00;6.67;;;;;;;;5020579;28;45436;-51
2023/04/25 11:42:39;;;;;;;;;7.00;7.00;;;;;;;;5020963;28;45387;-51
2023/04/25 11:45:05;;;;;;;;;6.33;6.33;;;;;;;;5020956;28;45394;-49
2023/04/25 11:47:31;;;;;;;;;10.33;8.33;;;;;;;;5020746;28;45296;-49
2023/04/25 11:49:59;;;;;;;;;6.33;6.33;;;;;;;;5020672;28;45572;-49
2023/04/25 11:52:35;;;;;;;;;5.33;5.00;;;;;;;;5020588;28;45427;-51
2023/04/25 11:55:00;;;;;;;;;7.00;7.00;;;;;;;;5022623;28;45421;-53
2023/04/25 11:57:25;;;;;;;;;11.67;7.67;;;;;;;;5018921;28;47005;-51
2023/04/25 11:59:51;;;;;;;;;10.67;7.67;;;;;;;;5020806;28;45346;-50
2023/04/25 12:02:26;;;;;;;;;12.00;7.67;;;;;;;;5020356;28;45799;-54
2023/04/25 12:04:51;;;;;;;;;8.00;7.33;;;;;;;;5014851;28;45224;-52
2023/04/25 12:07:18;;;;;;;;;7.67;7.67;;;;;;;;5020482;28;46103;-55
2023/04/25 12:09:51;;;;;;;;;11.00;7.33;;;;;;;;5020553;28;45256;-52
2023/04/25 12:12:16;;;;;;;;;7.67;6.33;;;;;;;;5020251;28;45662;-48
2023/04/25 12:14:47;;;;;;;;;7.67;6.67;;;;;;;;5020593;28;45232;-50
2023/04/25 12:17:12;;;;;;;;;9.67;7.33;;;;;;;;5018823;28;48055;-53
2023/04/25 12:19:40;;;;;;;;;9.33;5.00;;;;;;;;5020639;28;45280;-52
2023/04/25 12:22:19;;;;;;;;;6.67;6.67;;;;;;;;5020417;28;45365;-48
2023/04/25 12:24:45;;;;;;;;;6.67;6.00;;;;;;;;5020535;28;45244;-53
2023/04/25 12:27:10;;;;;;;;;9.50;5.50;;;;;;;;5019683;28;45273;-52
2023/04/25 12:29:35;;;;;;;;;6.67;4.67;;;;;;;;5023824;28;45413;-50
2023/04/25 12:32:04;;;;;;;;;4.67;4.67;;;;;;;;5019523;28;45326;-52
2023/04/25 12:34:31;;;;;;;;;10.33;7.00;;;;;;;;5020670;28;45358;-53
2023/04/25 12:36:56;;;;;;;;;8.33;8.00;;;;;;;;5020413;28;45441;-52
2023/04/25 12:39:23;;;;;;;;;7.00;6.00;;;;;;;;5019545;28;45165;-52
2023/04/25 12:41:48;;;;;;;;;7.00;6.00;;;;;;;;5019980;28;45479;-48
2023/04/25 12:44:13;;;;;;;;;6.33;6.00;;;;;;;;5019989;28;45232;-51
2023/04/25 12:46:39;;;;;;;;;12.00;10.00;;;;;;;;5018357;28;46323;-52
2023/04/25 12:49:06;;;;;;;;;13.33;11.67;;;;;;;;5019718;28;45303;-52
2023/04/25 12:51:32;;;;;;;;;5.00;5.00;;;;;;;;5020174;28;45514;-50
2023/04/25 12:53:57;;;;;;;;;7.00;6.00;;;;;;;;5020084;28;45341;-51
2023/04/25 12:56:23;;;;;;;;;9.67;7.33;;;;;;;;5020536;28;46228;-51
2023/04/25 12:58:48;;;;;;;;;4.00;4.00;;;;;;;;5020063;28;45438;-51
2023/04/25 13:01:14;;;;;;;;;6.00;6.00;;;;;;;;5018239;28;45449;-53
2023/04/25 13:03:40;;;;;;;;;7.33;6.67;;;;;;;;5019823;28;45391;-48
2023/04/25 13:06:05;;;;;;;;;7.33;6.00;;;;;;;;5019242;28;46304;-52
2023/04/25 13:08:31;;;;;;;;;7.00;6.00;;;;;;;;5019849;28;45881;-52
2023/04/25 13:10:56;;;;;;;;;6.67;5.00;;;;;;;;5020029;28;45440;-52
2023/04/25 13:13:21;;;;;;;;;4.33;4.33;;;;;;;;5019618;28;45586;-49
2023/04/25 13:15:46;;;;;;;;;5.67;4.67;;;;;;;;5019713;28;45287;-51
2023/04/25 13:18:11;;;;;;;;;4.33;3.33;;;;;;;;5019455;28;45232;-51
2023/04/25 13:20:37;;;;;;;;;7.67;6.67;;;;;;;;5018732;28;45306;-50
2023/04/25 13:23:02;;;;;;;;;9.67;6.33;;;;;;;;5019423;28;45347;-50
2023/04/25 13:25:27;;;;;;;;;6.67;5.33;;;;;;;;5019432;28;45270;-52
2023/04/25 13:27:52;;;;;;;;;6.00;6.00;;;;;;;;5019619;28;45288;-52
2023/04/25 13:30:17;;;;;;;;;5.33;4.67;;;;;;;;5023290;28;45204;-51
2023/04/25 13:32:43;;;;;;;;;6.33;5.33;;;;;;;;5019645;28;45314;-51
2023/04/25 13:35:10;;;;;;;;;3.67;3.33;;;;;;;;5017562;28;47080;-51
2023/04/25 13:37:35;;;;;;;;;4.00;4.00;;;;;;;;5019491;28;45328;-53
2023/04/25 13:40:01;;;;;;;;;7.00;5.00;;;;;;;;5017976;28;45301;-52
2023/04/25 13:42:26;;;;;;;;;5.00;5.00;;;;;;;;5017331;28;45525;-51
2023/04/25 13:44:51;;;;;;;;;4.33;4.33;;;;;;;;5019089;28;46056;-53
2023/04/25 13:47:16;;;;;;;;;4.33;4.33;;;;;;;;5018824;28;45380;-49
2023/04/25 13:49:41;;;;;;;;;8.00;4.00;;;;;;;;5019611;28;45260;-50
2023/04/25 13:52:07;;;;;;;;;6.33;6.00;;;;;;;;5017913;28;45765;-51
2023/04/25 13:54:32;;;;;;;;;7.00;5.67;;;;;;;;5020881;28;46949;-50
2023/04/25 13:56:58;;;;;;;;;6.00;5.00;;;;;;;;5018701;28;45288;-52
2023/04/25 13:59:25;;;;;;;;;7.33;6.33;;;;;;;;5017511;28;45312;-52
2023/04/25 14:01:50;;;;;;;;;8.00;5.00;;;;;;;;5018814;28;45600;-50
2023/04/25 14:04:15;;;;;;;;;6.67;6.00;;;;;;;;5018191;28;46383;-52
2023/04/25 14:06:41;;;;;;;;;5.00;5.00;;;;;;;;5017721;28;45461;-53
2023/04/25 14:09:06;;;;;;;;;7.33;6.00;;;;;;;;5018863;28;45254;-53
2023/04/25 14:11:33;;;;;;;;;5.67;5.00;;;;;;;;5018801;28;45348;-53
2023/04/25 14:13:58;;;;;;;;;5.33;5.00;;;;;;;;5018910;28;46227;-53
2023/04/25 14:16:23;;;;;;;;;9.33;6.00;;;;;;;;5018539;28;45439;-52
2023/04/25 14:18:48;;;;;;;;;4.67;4.67;;;;;;;;5017491;28;45236;-51
2023/04/25 14:21:14;;;;;;;;;7.00;6.00;;;;;;;;5018669;28;45216;-50
2023/04/25 14:23:39;;;;;;;;;6.00;5.00;;;;;;;;5018742;28;46374;-52
2023/04/25 14:26:05;;;;;;;;;8.00;6.33;;;;;;;;5018112;28;45208;-51
2023/04/25 14:28:30;;;;;;;;;6.67;5.00;;;;;;;;5018677;28;45324;-49
2023/04/25 14:30:55;;;;;;;;;6.00;5.00;;;;;;;;5022543;28;45275;-52
2023/04/25 14:33:21;;;;;;;;;4.67;4.67;;;;;;;;5018162;28;46939;-49
2023/04/25 14:35:47;;;;;;;;;6.67;6.67;;;;;;;;5018598;28;45432;-48
2023/04/25 14:38:12;;;;;;;;;6.67;4.67;;;;;;;;5018145;28;45342;-49
2023/04/25 14:40:37;;;;;;;;;5.67;5.67;;;;;;;;5018720;28;45332;-51
2023/04/25 14:43:03;;;;;;;;;8.67;6.33;;;;;;;;5016578;28;47040;-52
2023/04/25 14:45:28;;;;;;;;;8.00;6.67;;;;;;;;5018467;28;45386;-51
2023/04/25 14:47:53;;;;;;;;;6.67;5.00;;;;;;;;5017353;28;45468;-52
2023/04/25 14:50:18;;;;;;;;;5.67;5.67;;;;;;;;5016621;28;45312;-53
2023/04/25 14:52:44;;;;;;;;;6.00;6.00;;;;;;;;5017207;28;45377;-50
2023/04/25 14:55:10;;;;;;;;;8.00;6.33;;;;;;;;5019633;28;45517;-52
2023/04/25 14:57:35;;;;;;;;;4.67;4.00;;;;;;;;5018006;28;45386;-50
2023/04/25 15:00:00;;;;;;;;;6.67;4.00;;;;;;;;5018351;28;45436;-53
2023/04/25 15:02:26;;;;;;;;;6.33;6.33;;;;;;;;5018485;28;46069;-49
2023/04/25 15:04:51;;;;;;;;;6.67;5.33;;;;;;;;5021960;28;45386;-52
2023/04/25 15:07:17;;;;;;;;;6.00;5.00;;;;;;;;5021619;28;45283;-53
2023/04/25 15:09:42;;;;;;;;;8.00;5.00;;;;;;;;5020326;28;45561;-53
2023/04/25 15:12:07;;;;;;;;;6.67;5.00;;;;;;;;5020933;28;46267;-50
2023/04/25 15:14:33;;;;;;;;;6.00;4.00;;;;;;;;5021560;28;45315;-49
2023/04/25 15:16:59;;;;;;;;;4.67;4.33;;;;;;;;5021863;28;45295;-53
2023/04/25 15:19:24;;;;;;;;;5.67;4.67;;;;;;;;5021174;28;45499;-53
2023/04/25 15:21:49;;;;;;;;;6.00;6.00;;;;;;;;5021581;28;46292;-53
2023/04/25 15:24:15;;;;;;;;;5.33;4.00;;;;;;;;5021041;28;45344;-54
2023/04/25 15:26:41;;;;;;;;;5.00;3.00;;;;;;;;5020101;28;45339;-51
2023/04/25 15:29:06;;;;;;;;;8.00;6.33;;;;;;;;5025019;28;45229;-53
2023/04/25 15:31:31;;;;;;;;;5.00;5.00;;;;;;;;5021278;28;46048;-51
2023/04/25 15:33:56;;;;;;;;;6.67;5.00;;;;;;;;5021036;28;45343;-50
2023/04/25 15:36:22;;;;;;;;;7.67;5.33;;;;;;;;5020102;28;45367;-53
2023/04/25 15:38:47;;;;;;;;;7.33;6.33;;;;;;;;5021467;28;45398;-52
2023/04/25 15:41:12;;;;;;;;;6.00;6.00;;;;;;;;5020597;28;45680;-50
2023/04/25 15:43:37;;;;;;;;;10.33;6.33;;;;;;;;5021291;28;45290;-50
2023/04/25 15:46:06;;;;;;;;;5.00;5.00;;;;;;;;5021096;28;45684;-52
2023/04/25 15:48:32;;;;;;;;;7.67;5.67;;;;;;;;5019761;28;45726;-51
2023/04/25 15:50:58;;;;;;;;;6.33;6.00;;;;;;;;5019492;28;47000;-53
2023/04/25 15:53:23;;;;;;;;;2.67;2.67;;;;;;;;5019106;28;45336;-54
2023/04/25 15:55:48;;;;;;;;;7.33;5.00;;;;;;;;5023757;28;45197;-52
2023/04/25 15:58:13;;;;;;;;;7.00;7.00;;;;;;;;5019098;28;45395;-53
2023/04/25 16:00:39;;;;;;;;;8.33;5.67;;;;;;;;5020775;28;45869;-52
2023/04/25 16:03:04;;;;;;;;;7.00;5.00;;;;;;;;5002361;28;45332;-54
2023/04/25 16:05:30;;;;;;;;;5.33;3.33;;;;;;;;5016440;28;45524;-52
2023/04/25 16:07:55;;;;;;;;;5.67;5.00;;;;;;;;5018463;28;45289;-52
2023/04/25 16:10:20;;;;;;;;;6.67;5.00;;;;;;;;5013901;28;45655;-51
2023/04/25 16:12:47;;;;;;;;;9.33;7.67;;;;;;;;5011460;28;45466;-50
2023/04/25 16:15:12;;;;;;;;;6.00;5.00;;;;;;;;5017492;28;45558;-53
2023/04/25 16:17:37;;;;;;;;;4.00;3.33;;;;;;;;5019105;28;45434;-51
2023/04/25 16:20:08;;;;;;;;;6.00;5.33;;;;;;;;5017066;28;46049;-54
2023/04/25 16:22:34;;;;;;;;;3.67;3.67;;;;;;;;5018187;28;45753;-50
2023/04/25 16:24:59;;;;;;;;;6.00;5.00;;;;;;;;5016765;28;45387;-50
2023/04/25 16:27:24;;;;;;;;;9.00;3.67;;;;;;;;5018776;28;45366;-50
2023/04/25 16:29:50;;;;;;;;;7.00;5.00;;;;;;;;4995806;28;46801;-51
2023/04/25 16:32:15;;;;;;;;;4.67;4.67;;;;;;;;5018422;28;45322;-50
2023/04/25 16:34:40;;;;;;;;;6.00;4.33;;;;;;;;5019232;28;45373;-51
2023/04/25 16:37:06;;;;;;;;;9.33;6.33;;;;;;;;5019232;28;45559;-50
2023/04/25 16:39:31;;;;;;;;;8.00;6.33;;;;;;;;5019629;28;46281;-52
2023/04/25 16:41:56;;;;;;;;;5.00;5.00;;;;;;;;5018857;28;45863;-51
2023/04/25 16:44:21;;;;;;;;;5.33;5.00;;;;;;;;5017084;28;46578;-50
2023/04/25 16:46:46;;;;;;;;;8.00;5.33;;;;;;;;5017091;28;45709;-52
2023/04/25 16:49:12;;;;;;;;;5.33;5.33;;;;;;;;5018294;28;46177;-53
2023/04/25 16:51:37;;;;;;;;;9.67;6.00;;;;;;;;5018637;28;45302;-53
2023/04/25 16:54:02;;;;;;;;;8.00;5.67;;;;;;;;5017901;28;45338;-50
2023/04/25 16:56:27;;;;;;;;;7.67;5.33;;;;;;;;5017029;28;45767;-52
2023/04/25 16:58:53;;;;;;;;;8.33;4.33;;;;;;;;5018353;28;46230;-52
2023/04/25 17:01:19;;;;;;;;;3.67;3.67;;;;;;;;5018476;28;45423;-51
2023/04/25 17:03:45;;;;;;;;;6.00;5.67;;;;;;;;5019058;28;45504;-51
2023/04/25 17:06:10;;;;;;;;;6.33;5.00;;;;;;;;5018213;28;45525;-51
2023/04/25 17:08:35;;;;;;;;;6.67;5.67;;;;;;;;5019164;28;46133;-51
2023/04/25 17:11:01;;;;;;;;;4.67;3.67;;;;;;;;5017623;28;45429;-49
2023/04/25 17:13:27;;;;;;;;;10.00;7.00;;;;;;;;5018109;28;45366;-53
2023/04/25 17:15:52;;;;;;;;;5.67;5.67;;;;;;;;5018485;28;45224;-52
2023/04/25 17:18:17;;;;;;;;;5.33;5.33;;;;;;;;5016991;28;48404;-48
2023/04/25 17:20:42;;;;;;;;;6.33;6.33;;;;;;;;5018221;28;45398;-52
2023/04/25 17:23:08;;;;;;;;;1.00;1.00;;;;;;;;5017926;28;45443;-51
2023/04/25 17:25:33;;;;;;;;;5.33;5.33;;;;;;;;5016627;28;45466;-51
2023/04/25 17:27:58;;;;;;;;;6.67;6.67;;;;;;;;5018283;28;46236;-54
2023/04/25 17:30:24;;;;;;;;;6.00;6.00;;;;;;;;5018186;28;45406;-52
2023/04/25 17:32:49;;;;;;;;;5.67;5.33;;;;;;;;5018417;28;45459;-53
2023/04/25 17:35:15;;;;;;;;;10.33;5.67;;;;;;;;5017868;28;45442;-51
2023/04/25 17:37:41;;;;;;;;;8.00;5.00;;;;;;;;5018087;28;46274;-51
2023/04/25 17:40:09;;;;;;;;;5.33;4.67;;;;;;;;5017088;28;45509;-50
2023/04/25 17:42:35;;;;;;;;;10.67;6.00;;;;;;;;5019094;28;45496;-52
2023/04/25 17:45:00;;;;;;;;;5.00;5.00;;;;;;;;5017851;28;45577;-50
2023/04/25 17:47:25;;;;;;;;;5.00;5.00;;;;;;;;5017145;28;46220;-50
2023/04/25 17:49:50;;;;;;;;;7.67;7.67;;;;;;;;5018134;28;45432;-51
2023/04/25 17:52:15;;;;;;;;;8.00;8.00;;;;;;;;5017633;28;46647;-51
2023/04/25 17:54:41;;;;;;;;;8.67;6.67;;;;;;;;5018622;28;45382;-50
2023/04/25 17:57:06;;;;;;;;;8.00;7.00;;;;;;;;5016483;28;47035;-49
2023/04/25 17:59:31;;;;;;;;;6.00;6.00;;;;;;;;5018742;28;45376;-50
2023/04/25 18:01:58;;;;;;;;;6.67;5.67;;;;;;;;5016687;28;45678;-51
2023/04/25 18:04:23;;;;;;;;;8.00;6.33;;;;;;;;5016571;28;45415;-51
2023/04/25 18:06:49;;;;;;;;;6.33;6.33;;;;;;;;5016810;28;46219;-50
2023/04/25 18:09:17;;;;;;;;;9.67;8.67;;;;;;;;5017087;28;45371;-50
2023/04/25 18:11:42;;;;;;;;;7.67;7.00;;;;;;;;5018473;28;45369;-53
2023/04/25 18:14:13;;;;;;;;;10.00;7.00;;;;;;;;5017586;28;45418;-50
2023/04/25 18:16:38;;;;;;;;;9.00;7.33;;;;;;;;5018156;28;46321;-50
2023/04/25 18:19:10;;;;;;;;;8.67;7.00;;;;;;;;5017763;28;45220;-49
2023/04/25 18:21:35;;;;;;;;;10.33;8.00;;;;;;;;5016959;28;45414;-51
2023/04/25 18:24:01;;;;;;;;;8.33;7.00;;;;;;;;5017888;28;45784;-51
2023/04/25 18:26:26;;;;;;;;;8.00;7.33;;;;;;;;5017227;28;45412;-53
2023/04/25 18:28:51;;;;;;;;;8.67;7.00;;;;;;;;5017506;28;45453;-49
2023/04/25 18:31:21;;;;;;;;;9.00;7.00;;;;;;;;5015850;28;45497;-49
2023/04/25 18:33:46;;;;;;;;;12.00;7.00;;;;;;;;5017701;28;45339;-51
2023/04/25 18:36:12;;;;;;;;;7.67;7.67;;;;;;;;5013908;28;45622;-52
2023/04/25 18:38:37;;;;;;;;;10.00;8.33;;;;;;;;5020333;28;45431;-50
2023/04/25 18:41:02;;;;;;;;;8.33;8.33;;;;;;;;5021145;28;45327;-52
2023/04/25 18:43:27;;;;;;;;;7.67;6.33;;;;;;;;5019249;28;45482;-52
2023/04/25 18:45:53;;;;;;;;;10.00;8.00;;;;;;;;5018703;28;45620;-53
2023/04/25 18:48:18;;;;;;;;;6.00;6.00;;;;;;;;5019689;28;45427;-52
2023/04/25 18:50:43;;;;;;;;;6.00;6.00;;;;;;;;5022804;28;45379;-53
2023/04/25 18:53:09;;;;;;;;;11.67;9.33;;;;;;;;5014008;28;45632;-53
2023/04/25 18:55:34;;;;;;;;;8.00;8.00;;;;;;;;5018947;28;46933;-53
2023/04/25 18:58:00;;;;;;;;;8.33;7.67;;;;;;;;5017970;28;45413;-51
2023/04/25 19:00:25;;;;;;;;;9.33;5.67;;;;;;;;5019109;28;45331;-50
2023/04/25 19:02:50;;;;;;;;;9.00;7.00;;;;;;;;5021509;28;45434;-52
2023/04/25 19:05:16;;;;;;;;;8.67;7.67;;;;;;;;5020253;28;46254;-52
2023/04/25 19:07:41;;;;;;;;;9.33;8.00;;;;;;;;5022255;28;45306;-51
2023/04/25 19:10:07;;;;;;;;;13.33;10.33;;;;;;;;5021506;28;45340;-49
2023/04/25 19:12:32;;;;;;;;;10.00;10.00;;;;;;;;5019851;28;45310;-51
2023/04/25 19:14:57;;;;;;;;;9.00;9.00;;;;;;;;5021414;28;45526;-51
2023/04/25 19:17:22;;;;;;;;;11.33;9.00;;;;;;;;5021556;28;45286;-49
2023/04/25 19:19:48;;;;;;;;;9.00;9.00;;;;;;;;5021785;28;45265;-51
2023/04/25 19:22:13;;;;;;;;;12.00;11.00;;;;;;;;5021049;28;45506;-52
2023/04/25 19:24:38;;;;;;;;;12.33;11.67;;;;;;;;5021780;28;46127;-53